Time;durP1;ratioP1;P1;durP2;ratioP2;P2;SDS_P1;SDS_P2;PMS_P1;PMS_P2;Temp;Humidity;BMP_temperature;BMP_pressure;BME280_temperature;BME280_humidity;BME280_pressure;Samples;Min_cycle;Max_cycle;Signal;HPM_P1;HPM_P2
2022/12/11 00:00:20;;;;;;;;;;;;;;;-144.99;85.67;52680.47;4987684;28;20495;-75
2022/12/11 00:02:47;;;;;;;;;;;;;;;-144.99;85.70;52684.53;4997978;28;19962;-76
2022/12/11 00:05:14;;;;;;;;;;;;;;;-144.99;85.57;52668.22;4996182;28;19965;-75
2022/12/11 00:07:42;;;;;;;;;;;;;;;-144.99;85.31;52680.47;4983529;28;20257;-74
2022/12/11 00:10:09;;;;;;;;;;;;;;;-144.99;85.48;52704.94;4987648;28;20024;-76
2022/12/11 00:12:35;;;;;;;;;;;;;;;-144.99;85.86;52668.22;4986106;28;20016;-77
2022/12/11 00:15:02;;;;;;;;;;;;;;;-144.99;85.73;52651.94;4986581;28;20026;-78
2022/12/11 00:17:28;;;;;;;;;;;;;;;-144.99;85.63;52700.84;4984308;28;20018;-74
2022/12/11 00:19:55;;;;;;;;;;;;;;;-144.99;85.45;52696.78;4991595;28;19944;-77
2022/12/11 00:22:21;;;;;;;;;;;;;;;-144.99;85.40;52680.47;4991104;28;20274;-77
2022/12/11 00:24:49;;;;;;;;;;;;;;;-144.99;85.53;52682.50;4992693;28;19952;-77
2022/12/11 00:27:16;;;;;;;;;;;;;;;-144.99;85.28;52694.72;4988987;28;20383;-75
2022/12/11 00:29:42;;;;;;;;;;;;;;;-144.99;85.42;52656.00;4987790;28;20035;-78
2022/12/11 00:32:09;;;;;;;;;;;;;;;-144.99;85.17;52678.44;4972571;28;20163;-79
2022/12/11 00:34:35;;;;;;;;;;;;;;;-144.99;85.13;52676.38;4990258;28;20431;-76
2022/12/11 00:37:02;;;;;;;;;;;;;;;-144.99;85.14;52700.84;4985130;28;19966;-74
2022/12/11 00:39:28;;;;;;;;;;;;;;;-144.99;85.14;52680.47;4991204;28;19940;-76
2022/12/11 00:41:57;;;;;;;;;;;;;;;-144.99;85.23;52688.63;4990602;28;20278;-77
2022/12/11 00:44:23;;;;;;;;;;;;;;;-144.99;85.03;52672.31;4986734;28;19930;-75
2022/12/11 00:46:50;;;;;;;;;;;;;;;-144.99;85.24;52639.69;4988960;28;19965;-74
2022/12/11 00:49:16;;;;;;;;;;;;;;;-144.99;85.08;52698.81;4993375;28;19960;-77
2022/12/11 00:51:43;;;;;;;;;;;;;;;-144.99;85.04;52660.09;5002564;28;19964;-79
2022/12/11 00:54:09;;;;;;;;;;;;;;;-144.99;85.00;52674.34;4994349;28;19991;-75
2022/12/11 00:56:36;;;;;;;;;;;;;;;-144.99;84.78;52635.63;4990923;28;20237;-75
2022/12/11 00:59:04;;;;;;;;;;;;;;;-144.99;84.63;52702.88;4982051;28;19956;-74
2022/12/11 01:01:30;;;;;;;;;;;;;;;-144.99;84.87;52651.94;4987556;28;19966;-75
2022/12/11 01:03:57;;;;;;;;;;;;;;;-144.99;84.86;52700.84;4986877;28;20395;-75
2022/12/11 01:06:24;;;;;;;;;;;;;;;-144.99;84.92;52684.53;4985805;28;20063;-74
2022/12/11 01:10:22;;;;;;;;;;;;;;;-144.99;84.99;52656.00;4970948;28;20031;-74
2022/12/11 01:11:38;;;;;;;;;;;;;;;-144.99;84.67;52662.13;4983875;28;19964;-74
2022/12/11 01:14:06;;;;;;;;;;;;;;;-144.99;84.83;52674.34;4989890;28;20422;-75
2022/12/11 01:16:33;;;;;;;;;;;;;;;-144.99;85.29;52688.63;4981598;28;20445;-78
2022/12/11 01:18:59;;;;;;;;;;;;;;;-144.99;85.98;52668.22;4980124;28;20327;-75
2022/12/11 01:21:26;;;;;;;;;;;;;;;-144.99;85.56;52668.22;4982172;28;20184;-74
2022/12/11 01:23:53;;;;;;;;;;;;;;;-144.99;85.33;52702.88;4991133;28;19976;-73
2022/12/11 01:26:20;;;;;;;;;;;;;;;-144.99;85.55;52692.69;5004421;28;19954;-81
2022/12/11 01:28:49;;;;;;;;;;;;;;;-144.99;85.26;52625.44;4974639;28;20013;-75
2022/12/11 01:31:18;;;;;;;;;;;;;;;-144.99;85.38;52698.81;4989237;28;20028;-77
2022/12/11 01:33:44;;;;;;;;;;;;;;;-144.99;85.14;52700.84;4990167;28;20029;-75
2022/12/11 01:36:12;;;;;;;;;;;;;;;-144.99;85.35;52651.94;4990819;28;19987;-74
2022/12/11 01:38:39;;;;;;;;;;;;;;;-144.99;85.48;52676.38;4984302;28;19943;-75
2022/12/11 01:41:05;;;;;;;;;;;;;;;-144.99;85.44;52684.53;4989919;28;20012;-75
2022/12/11 01:43:32;;;;;;;;;;;;;;;-144.99;85.44;52688.63;4977016;28;19979;-76
2022/12/11 01:45:58;;;;;;;;;;;;;;;-144.99;85.52;52709.00;4989973;28;20004;-77
2022/12/11 01:48:28;;;;;;;;;;;;;;;-144.99;85.40;52674.34;4989903;28;19999;-76
2022/12/11 01:50:56;;;;;;;;;;;;;;;-144.99;85.49;52696.78;4987480;28;20010;-76
2022/12/11 01:53:25;;;;;;;;;;;;;;;-144.99;84.83;52688.63;4989327;28;20024;-76
2022/12/11 01:55:52;;;;;;;;;;;;;;;-144.99;84.60;52668.22;4990483;28;20452;-78
2022/12/11 01:58:20;;;;;;;;;;;;;;;-144.99;84.61;52717.16;4981569;28;20361;-77
2022/12/11 02:00:46;;;;;;;;;;;;;;;-144.99;84.71;52680.47;5006321;28;19930;-82
2022/12/11 02:03:13;;;;;;;;;;;;;;;-144.99;84.45;52688.63;4987114;28;20167;-77
2022/12/11 02:05:41;;;;;;;;;;;;;;;-144.99;84.43;52709.00;4984140;28;20061;-80
2022/12/11 02:08:08;;;;;;;;;;;;;;;-144.99;85.01;52688.63;4990157;28;19991;-78
2022/12/11 02:10:43;;;;;;;;;;;;;;;-144.99;85.11;52676.38;4988544;28;20296;-77
2022/12/11 02:13:13;;;;;;;;;;;;;;;-144.99;85.19;52660.09;4986049;28;20089;-80
2022/12/11 02:15:46;;;;;;;;;;;;;;;-144.99;85.42;52696.78;4983271;28;19968;-77
2022/12/11 02:18:17;;;;;;;;;;;;;;;-144.99;85.26;52686.59;4970361;28;20415;-77
2022/12/11 02:20:48;;;;;;;;;;;;;;;-144.99;85.08;52660.09;5013851;23;19983;-73
2022/12/11 02:23:29;;;;;;;;;;;;;;;-144.99;85.03;52684.53;4990515;28;20304;-73
2022/12/11 02:26:03;;;;;;;;;;;;;;;-144.99;84.95;52678.44;4984203;28;20012;-76
2022/12/11 02:28:33;;;;;;;;;;;;;;;-144.99;85.08;52676.38;4999863;28;20055;-75
2022/12/11 02:31:01;;;;;;;;;;;;;;;-144.99;84.91;52709.00;5000484;28;19965;-76
2022/12/11 02:33:32;;;;;;;;;;;;;;;-144.99;84.71;52660.09;4992423;28;19941;-76
2022/12/11 02:35:59;;;;;;;;;;;;;;;-144.99;84.63;52660.09;4984228;28;19964;-76
2022/12/11 02:38:28;;;;;;;;;;;;;;;-144.99;84.70;52717.16;4973047;28;20059;-75
2022/12/11 02:40:56;;;;;;;;;;;;;;;-144.99;84.89;52680.47;4970835;28;20436;-75
2022/12/11 02:43:23;;;;;;;;;;;;;;;-144.99;84.75;52676.38;4989135;28;19956;-77
2022/12/11 02:45:54;;;;;;;;;;;;;;;-144.99;84.77;52696.78;4996068;28;20727;-75
2022/12/11 02:48:21;;;;;;;;;;;;;;;-144.99;85.08;52715.13;4978744;28;20002;-75
2022/12/11 02:50:51;;;;;;;;;;;;;;;-144.99;85.37;52694.72;4981684;28;20403;-75
2022/12/11 02:53:19;;;;;;;;;;;;;;;-144.99;85.16;52660.09;4978622;28;19972;-75
2022/12/11 02:55:47;;;;;;;;;;;;;;;-144.99;84.94;52686.59;4980020;28;19930;-74
2022/12/11 02:58:16;;;;;;;;;;;;;;;-144.99;84.70;52680.47;4981075;28;20092;-74
2022/12/11 03:00:44;;;;;;;;;;;;;;;-144.99;84.66;52700.84;4981301;28;19970;-74
2022/12/11 03:03:12;;;;;;;;;;;;;;;-144.99;84.39;52717.16;4981290;28;19968;-74
2022/12/11 03:05:38;;;;;;;;;;;;;;;-144.99;84.58;52643.78;4980864;28;19945;-74
2022/12/11 03:08:05;;;;;;;;;;;;;;;-144.99;84.59;52717.16;4979077;28;19952;-74
2022/12/11 03:10:31;;;;;;;;;;;;;;;-144.99;84.76;52709.00;4981477;28;20402;-75
2022/12/11 03:12:59;;;;;;;;;;;;;;;-144.99;84.72;52694.72;4978870;28;19932;-75
2022/12/11 03:15:32;;;;;;;;;;;;;;;-144.99;84.88;52656.00;4978310;28;20496;-76
2022/12/11 03:18:03;;;;;;;;;;;;;;;-144.99;84.52;52649.88;4978120;28;19926;-75
2022/12/11 03:20:34;;;;;;;;;;;;;;;-144.99;84.53;52674.34;4966077;28;19973;-76
2022/12/11 03:23:05;;;;;;;;;;;;;;;-144.99;84.56;52651.94;4978300;28;19940;-75
2022/12/11 03:25:34;;;;;;;;;;;;;;;-144.99;84.38;52680.47;4996837;28;20094;-79
2022/12/11 03:28:04;;;;;;;;;;;;;;;-144.99;84.64;52688.63;4986875;28;19946;-75
2022/12/11 03:30:31;;;;;;;;;;;;;;;-144.99;84.50;52713.09;4965805;28;19926;-76
2022/12/11 03:32:59;;;;;;;;;;;;;;;-144.99;84.45;52676.38;4972611;28;20011;-75
2022/12/11 03:35:27;;;;;;;;;;;;;;;-144.99;84.73;52676.38;4968225;28;19968;-76
2022/12/11 03:37:57;;;;;;;;;;;;;;;-144.99;84.97;52641.72;4984851;28;19940;-74
2022/12/11 03:40:26;;;;;;;;;;;;;;;-144.99;84.87;52668.22;4993611;28;19925;-74
2022/12/11 03:42:53;;;;;;;;;;;;;;;-144.99;84.89;52694.72;4997008;28;19948;-75
2022/12/11 03:45:20;;;;;;;;;;;;;;;-144.99;85.16;52684.53;4976719;28;19982;-74
2022/12/11 03:47:47;;;;;;;;;;;;;;;-144.99;85.25;52692.69;4974851;28;19933;-74
2022/12/11 03:50:15;;;;;;;;;;;;;;;-144.99;84.90;52664.16;4974502;28;19967;-74
2022/12/11 03:52:43;;;;;;;;;;;;;;;-144.99;84.86;52684.53;4974282;28;19967;-75
2022/12/11 03:55:12;;;;;;;;;;;;;;;-144.99;84.92;52700.84;4974060;28;20321;-74
2022/12/11 03:57:39;;;;;;;;;;;;;;;-144.99;84.56;52696.78;4969063;28;20004;-74
2022/12/11 04:00:06;;;;;;;;;;;;;;;-144.99;84.50;52651.94;4985535;28;19965;-75
2022/12/11 04:02:33;;;;;;;;;;;;;;;-144.99;84.58;52676.38;4994298;28;19974;-75
2022/12/11 04:04:59;;;;;;;;;;;;;;;-144.99;84.46;52688.63;4995993;28;19914;-75
2022/12/11 04:07:26;;;;;;;;;;;;;;;-144.99;85.24;52698.81;4996919;28;19964;-78
2022/12/11 04:09:52;;;;;;;;;;;;;;;-144.99;84.91;52696.78;4983158;28;19930;-77
2022/12/11 04:12:20;;;;;;;;;;;;;;;-144.99;84.28;52692.69;4971330;28;19995;-78
2022/12/11 04:15:03;;;;;;;;;;;;;;;-144.99;83.98;52668.22;4973395;28;20375;-77
2022/12/11 04:25:41;;;;;;;;;;;;;;;-144.99;83.13;52660.09;4951312;29;19944;-76
2022/12/11 04:28:09;;;;;;;;;;;;;;;-144.99;82.92;52692.69;4994836;28;19938;-77
2022/12/11 04:30:35;;;;;;;;;;;;;;;-144.99;82.76;52696.78;5015264;28;20146;-76
2022/12/11 04:33:02;;;;;;;;;;;;;;;-144.99;83.01;52696.78;4997410;28;20197;-77
2022/12/11 04:35:28;;;;;;;;;;;;;;;-144.99;83.01;52688.63;4995898;28;20080;-76
2022/12/11 04:37:55;;;;;;;;;;;;;;;-144.99;82.83;52717.16;4996507;28;19944;-78
2022/12/11 04:40:21;;;;;;;;;;;;;;;-144.99;82.77;52651.94;4996481;28;20026;-77
2022/12/11 04:42:48;;;;;;;;;;;;;;;-144.99;83.06;52704.94;4989540;28;19926;-76
2022/12/11 04:45:16;;;;;;;;;;;;;;;-144.99;82.93;52670.28;4991037;28;19965;-77
2022/12/11 04:47:42;;;;;;;;;;;;;;;-144.99;83.34;52688.63;4994582;28;19930;-78
2022/12/11 04:50:10;;;;;;;;;;;;;;;-144.99;83.05;52676.38;4995796;28;20011;-77
2022/12/11 04:52:37;;;;;;;;;;;;;;;-144.99;82.85;52684.53;4988788;28;19973;-78
2022/12/11 04:55:03;;;;;;;;;;;;;;;-144.99;83.11;52700.84;4996516;28;19978;-78
2022/12/11 04:57:30;;;;;;;;;;;;;;;-144.99;83.01;52668.22;4996220;28;19932;-75
2022/12/11 04:59:56;;;;;;;;;;;;;;;-144.99;83.09;52684.53;4992067;28;19964;-75
2022/12/11 05:02:24;;;;;;;;;;;;;;;-144.99;82.72;52690.66;4997428;28;20383;-73
2022/12/11 05:04:50;;;;;;;;;;;;;;;-144.99;82.69;52676.38;5000282;28;19926;-75
2022/12/11 05:07:17;;;;;;;;;;;;;;;-144.99;82.92;52651.94;4999002;28;20343;-75
2022/12/11 05:09:43;;;;;;;;;;;;;;;-144.99;83.38;52700.84;4998145;28;20025;-75
2022/12/11 05:12:10;;;;;;;;;;;;;;;-144.99;83.06;52664.16;4992941;28;19961;-74
2022/12/11 05:14:36;;;;;;;;;;;;;;;-144.99;83.05;52676.38;4978881;28;19957;-75
2022/12/11 05:17:03;;;;;;;;;;;;;;;-144.99;82.98;52704.94;4979102;28;20383;-75
2022/12/11 05:19:31;;;;;;;;;;;;;;;-144.99;82.97;52658.03;4979505;28;19937;-75
2022/12/11 05:21:57;;;;;;;;;;;;;;;-144.99;82.83;52709.00;4978417;28;20078;-75
2022/12/11 05:24:24;;;;;;;;;;;;;;;-144.99;83.24;52651.94;4977951;28;19938;-74
2022/12/11 05:26:50;;;;;;;;;;;;;;;-144.99;82.99;52684.53;4978172;28;19976;-76
2022/12/11 05:29:17;;;;;;;;;;;;;;;-144.99;83.06;52690.66;4992559;28;19948;-76
2022/12/11 05:31:43;;;;;;;;;;;;;;;-144.99;83.06;52700.84;4990257;28;19972;-75
2022/12/11 05:34:10;;;;;;;;;;;;;;;-144.99;83.14;52713.09;4976799;28;20390;-75
2022/12/11 05:36:37;;;;;;;;;;;;;;;-144.99;83.12;52700.84;4976445;28;19991;-74
2022/12/11 05:39:04;;;;;;;;;;;;;;;-144.99;83.08;52668.22;4975193;28;19993;-74
2022/12/11 05:41:32;;;;;;;;;;;;;;;-144.99;83.18;52666.19;4977873;28;19934;-76
2022/12/11 05:43:58;;;;;;;;;;;;;;;-144.99;83.22;52706.97;4977149;28;19964;-75
2022/12/11 05:46:26;;;;;;;;;;;;;;;-144.99;83.36;52680.47;4976317;28;20119;-74
2022/12/11 05:48:54;;;;;;;;;;;;;;;-144.99;83.38;52713.09;4968293;28;20005;-73
2022/12/11 05:51:21;;;;;;;;;;;;;;;-144.99;83.78;52700.84;4976614;28;19968;-75
2022/12/11 05:53:50;;;;;;;;;;;;;;;-144.99;83.95;52686.59;4976738;28;19967;-74
2022/12/11 05:56:18;;;;;;;;;;;;;;;-144.99;83.94;52696.78;4979765;28;19963;-73
2022/12/11 05:58:45;;;;;;;;;;;;;;;-144.99;83.96;52696.78;4982722;28;19941;-74
2022/12/11 06:01:14;;;;;;;;;;;;;;;-144.99;84.00;52680.47;4991773;28;19954;-76
2022/12/11 06:03:41;;;;;;;;;;;;;;;-144.99;84.29;52688.63;4990786;28;20358;-75
2022/12/11 06:06:07;;;;;;;;;;;;;;;-144.99;84.45;52706.97;4990017;28;19944;-75
2022/12/11 06:08:34;;;;;;;;;;;;;;;-144.99;84.63;52713.09;4978956;28;19959;-74
2022/12/11 06:11:02;;;;;;;;;;;;;;;-144.99;84.94;52678.44;4989163;28;19948;-75
2022/12/11 06:13:29;;;;;;;;;;;;;;;-144.99;85.15;52692.69;4995555;28;19948;-75
2022/12/11 06:15:59;;;;;;;;;;;;;;;-144.99;85.03;52700.84;4990392;28;19960;-78
2022/12/11 06:18:25;;;;;;;;;;;;;;;-144.99;85.24;52660.09;4975645;28;19965;-78
2022/12/11 06:20:52;;;;;;;;;;;;;;;-144.99;85.85;52660.09;4975417;28;19945;-76
2022/12/11 06:23:18;;;;;;;;;;;;;;;-144.99;86.20;52688.63;4975287;28;20004;-77
2022/12/11 06:25:45;;;;;;;;;;;;;;;-144.99;86.29;52706.97;4988827;28;19944;-75
2022/12/11 06:28:13;;;;;;;;;;;;;;;-144.99;86.32;52688.63;4993682;28;20453;-76
2022/12/11 06:30:39;;;;;;;;;;;;;;;-144.99;86.11;52704.94;4977155;28;20371;-78
2022/12/11 06:33:06;;;;;;;;;;;;;;;-144.99;86.05;52643.78;4976180;28;20017;-77
2022/12/11 06:35:32;;;;;;;;;;;;;;;-144.99;86.08;52686.59;4978394;28;19957;-76
2022/12/11 06:37:59;;;;;;;;;;;;;;;-144.99;86.39;52696.78;4972027;28;20296;-76
2022/12/11 06:40:25;;;;;;;;;;;;;;;-144.99;86.28;52676.38;4976202;28;19926;-77
2022/12/11 06:42:52;;;;;;;;;;;;;;;-144.99;86.09;52713.09;4976648;28;19936;-77
2022/12/11 06:45:20;;;;;;;;;;;;;;;-144.99;86.26;52719.19;4977617;28;19981;-76
2022/12/11 06:47:46;;;;;;;;;;;;;;;-144.99;86.36;52676.38;4976926;28;19995;-76
2022/12/11 06:50:12;;;;;;;;;;;;;;;-144.99;86.41;52692.69;4977757;28;19957;-77
2022/12/11 06:52:39;;;;;;;;;;;;;;;-144.99;86.76;52706.97;4986526;28;19963;-78
2022/12/11 06:55:06;;;;;;;;;;;;;;;-144.99;86.60;52692.69;4988853;28;19941;-76
2022/12/11 06:57:33;;;;;;;;;;;;;;;-144.99;86.53;52676.38;4977119;28;19999;-77
2022/12/11 06:59:59;;;;;;;;;;;;;;;-144.99;86.65;52664.16;4975103;28;20371;-77
2022/12/11 07:02:27;;;;;;;;;;;;;;;-144.99;86.99;52647.84;4966699;28;19999;-77
2022/12/11 07:04:54;;;;;;;;;;;;;;;-144.99;87.27;52670.28;4975025;28;19942;-77
2022/12/11 07:07:20;;;;;;;;;;;;;;;-144.99;87.28;52717.16;4975339;28;19944;-74
2022/12/11 07:09:47;;;;;;;;;;;;;;;-144.99;87.30;52627.47;4977469;28;19961;-73
2022/12/11 07:12:13;;;;;;;;;;;;;;;-144.99;87.33;52692.69;4975394;28;19980;-72
2022/12/11 07:14:40;;;;;;;;;;;;;;;-144.99;87.38;52711.03;4974368;28;19930;-71
2022/12/11 07:17:06;;;;;;;;;;;;;;;-144.99;87.63;52688.63;4973955;28;20389;-73
2022/12/11 07:19:34;;;;;;;;;;;;;;;-144.99;88.11;52676.38;4974504;28;19926;-72
2022/12/11 07:22:00;;;;;;;;;;;;;;;-144.99;88.63;52688.63;4961473;28;19966;-72
2022/12/11 07:24:27;;;;;;;;;;;;;;;-144.99;89.24;52719.19;4972914;28;19991;-72
2022/12/11 07:26:53;;;;;;;;;;;;;;;-144.99;88.86;52651.94;4973293;28;19996;-72
2022/12/11 07:29:20;;;;;;;;;;;;;;;-144.99;89.12;52672.31;4974111;28;19973;-73
2022/12/11 07:31:47;;;;;;;;;;;;;;;-144.99;89.31;52668.22;4974683;28;19960;-73
2022/12/11 07:34:13;;;;;;;;;;;;;;;-144.99;90.05;52686.59;4991968;28;19925;-74
2022/12/11 07:36:43;;;;;;;;;;;;;;;-144.99;91.46;52709.00;4991076;28;20293;-71
2022/12/11 07:39:10;;;;;;;;;;;;;;;-144.99;91.71;52688.63;4972313;28;19968;-73
2022/12/11 07:41:37;;;;;;;;;;;;;;;-144.99;91.95;52692.69;4975812;28;19993;-72
2022/12/11 07:44:04;;;;;;;;;;;;;;;-144.99;92.51;52668.22;4975973;28;19985;-79
2022/12/11 07:46:32;;;;;;;;;;;;;;;-144.99;93.32;52674.34;4974831;28;19979;-78
2022/12/11 07:48:59;;;;;;;;;;;;;;;-144.99;93.27;52719.19;4976847;28;19945;-78
2022/12/11 07:51:27;;;;;;;;;;;;;;;-144.99;92.73;52647.84;4976882;28;20098;-79
2022/12/11 07:53:56;;;;;;;;;;;;;;;-144.99;92.63;52696.78;4975061;28;19990;-79
2022/12/11 07:56:23;;;;;;;;;;;;;;;-144.99;92.57;52627.47;4975457;28;19926;-78
2022/12/11 07:58:50;;;;;;;;;;;;;;;-144.99;92.65;52684.53;4975906;28;19970;-78
2022/12/11 08:01:18;;;;;;;;;;;;;;;-144.99;92.33;52651.94;4975900;28;19958;-76
2022/12/11 08:03:45;;;;;;;;;;;;;;;-144.99;92.09;52668.22;4976419;28;19958;-76
2022/12/11 08:06:11;;;;;;;;;;;;;;;-144.99;92.28;52676.38;4974146;28;19993;-75
2022/12/11 08:08:38;;;;;;;;;;;;;;;-144.99;92.42;52639.69;4977255;28;20434;-74
2022/12/11 08:11:07;;;;;;;;;;;;;;;-144.99;92.29;52668.22;4974243;28;19962;-75
2022/12/11 08:13:34;;;;;;;;;;;;;;;-144.99;93.48;52674.34;4974014;28;19933;-74
2022/12/11 08:16:03;;;;;;;;;;;;;;;-144.99;92.49;52676.38;4990997;28;19932;-73
2022/12/11 08:18:29;;;;;;;;;;;;;;;-144.99;92.04;52660.09;4989557;28;20472;-74
2022/12/11 08:20:56;;;;;;;;;;;;;;;-144.99;91.66;52676.38;4974096;28;20925;-74
2022/12/11 08:23:22;;;;;;;;;;;;;;;-144.99;90.79;52651.94;4973121;28;20370;-73
2022/12/11 08:25:49;;;;;;;;;;;;;;;-144.99;89.68;52619.31;4972954;28;19947;-74
2022/12/11 08:28:17;;;;;;;;;;;;;;;-144.99;87.84;52653.97;4979730;28;19930;-75
2022/12/11 08:30:43;;;;;;;;;;;;;;;-144.99;89.87;52656.00;5004286;23;19926;-74
2022/12/11 08:33:09;;;;;;;;;;;;;;;-144.99;92.19;52660.09;5028594;28;19938;-76
2022/12/11 08:35:38;;;;;;;;;;;;;;;-144.99;88.93;52649.88;5039893;28;19940;-77
2022/12/11 08:38:04;;;;;;;;;;;;;;;-144.99;89.77;52649.88;5031127;28;20008;-74
2022/12/11 08:40:31;;;;;;;;;;;;;;;-144.99;87.49;52660.09;5036059;28;20050;-75
2022/12/11 08:42:57;;;;;;;;;;;;;;;-144.99;86.50;52656.00;5036478;28;19935;-77
2022/12/11 08:45:25;;;;;;;;;;;;;;;-144.99;85.50;52660.09;5032858;28;19924;-76
2022/12/11 08:47:52;;;;;;;;;;;;;;;-144.99;85.96;52635.63;5009547;28;20150;-76
2022/12/11 08:50:19;;;;;;;;;;;;;;;-144.99;83.04;52660.09;5012624;28;19962;-74
2022/12/11 08:52:45;;;;;;;;;;;;;;;-144.99;79.48;52651.94;5012651;28;20349;-76
2022/12/11 08:55:12;;;;;;;;;;;;;;;-144.99;75.24;52660.09;5013857;28;20563;-75
2022/12/11 08:57:39;;;;;;;;;;;;;;;-144.99;73.66;52627.47;5012110;28;20027;-76
2022/12/11 09:00:07;;;;;;;;;;;;;;;-144.99;73.79;52664.16;5025392;28;19967;-77
2022/12/11 09:02:35;;;;;;;;;;;;;;;-144.99;71.83;52643.78;5012459;28;19934;-76
2022/12/11 09:05:01;;;;;;;;;;;;;;;-144.99;70.96;52643.78;5021608;28;19982;-77
2022/12/11 09:07:28;;;;;;;;;;;;;;;-144.99;71.01;52668.22;5037167;28;19943;-77
2022/12/11 09:09:54;;;;;;;;;;;;;;;-144.99;70.60;52668.22;5017093;28;20002;-76
2022/12/11 09:12:21;;;;;;;;;;;;;;;-144.99;70.15;52660.09;5010889;28;20503;-76
2022/12/11 09:14:48;;;;;;;;;;;;;;;-144.99;69.74;52619.31;5010966;28;19940;-76
2022/12/11 09:17:14;;;;;;;;;;;;;;;-144.99;67.73;52629.50;5011395;28;20003;-77
2022/12/11 09:19:42;;;;;;;;;;;;;;;-144.99;67.55;52668.22;5011163;28;20444;-76
2022/12/11 09:22:10;;;;;;;;;;;;;;;-144.99;65.60;52647.84;5010698;28;19945;-76
2022/12/11 09:24:36;;;;;;;;;;;;;;;-144.99;64.43;52643.78;5013234;28;19959;-77
2022/12/11 09:27:03;;;;;;;;;;;;;;;-144.99;64.23;52645.81;5010267;28;19975;-76
2022/12/11 09:29:29;;;;;;;;;;;;;;;-144.99;63.82;52629.50;5010513;28;19936;-76
2022/12/11 09:31:56;;;;;;;;;;;;;;;-144.99;61.98;52651.94;5010579;28;19991;-76
2022/12/11 09:34:22;;;;;;;;;;;;;;;-144.99;61.65;52609.13;5010311;28;20335;-77
2022/12/11 09:36:50;;;;;;;;;;;;;;;-144.99;60.46;52611.16;5007002;28;19961;-76
2022/12/11 09:39:17;;;;;;;;;;;;;;;-144.99;58.37;52647.84;5008958;28;20020;-76
2022/12/11 09:41:49;;;;;;;;;;;;;;;-144.99;57.89;52664.16;5010683;28;19951;-76
2022/12/11 09:44:21;;;;;;;;;;;;;;;-144.99;57.53;52598.94;5010468;28;20039;-75
2022/12/11 09:46:48;;;;;;;;;;;;;;;-144.99;55.54;52635.63;5011013;28;20033;-74
2022/12/11 09:49:21;;;;;;;;;;;;;;;-144.99;54.62;52615.25;5012829;28;20157;-76
2022/12/11 09:51:49;;;;;;;;;;;;;;;-144.99;53.48;52547.97;5035628;28;20073;-76
2022/12/11 09:54:17;;;;;;;;;;;;;;;-144.99;52.57;52562.25;5016684;28;19969;-75
2022/12/11 09:56:49;;;;;;;;;;;;;;;-144.99;50.90;52578.53;5010896;28;19936;-75
2022/12/11 09:59:23;;;;;;;;;;;;;;;-144.99;49.71;52578.53;5011124;28;20074;-76
2022/12/11 10:01:52;;;;;;;;;;;;;;;-144.99;47.73;52554.09;5010480;28;20464;-76
2022/12/11 10:04:24;;;;;;;;;;;;;;;-144.99;46.55;52560.19;5011332;28;20064;-76
2022/12/11 10:06:58;;;;;;;;;;;;;;;-144.99;46.52;52550.00;5011441;28;20465;-76
2022/12/11 10:09:30;;;;;;;;;;;;;;;-144.99;44.88;52505.16;5014920;28;19982;-77
2022/12/11 10:12:02;;;;;;;;;;;;;;;-144.99;44.47;52501.09;5022049;28;19949;-75
2022/12/11 10:14:35;;;;;;;;;;;;;;;-144.99;43.66;52478.66;5025097;28;19960;-76
2022/12/11 10:17:03;;;;;;;;;;;;;;;-144.99;42.29;52448.09;5033225;28;19925;-76
2022/12/11 10:19:31;;;;;;;;;;;;;;;-144.99;41.78;52435.88;5033358;28;19929;-76
2022/12/11 10:21:59;;;;;;;;;;;;;;;-144.99;41.03;52448.09;5033221;28;19960;-76
2022/12/11 10:24:29;;;;;;;;;;;;;;;-144.99;40.32;52386.94;5027006;28;19986;-76
2022/12/11 10:26:58;;;;;;;;;;;;;;;-144.99;38.83;52417.53;5032827;28;19939;-76
2022/12/11 10:29:24;;;;;;;;;;;;;;;-144.99;38.25;52415.47;5011061;28;20019;-75
2022/12/11 10:31:54;;;;;;;;;;;;;;;-144.99;37.19;52427.72;5020073;28;20033;-77
2022/12/11 10:34:26;;;;;;;;;;;;;;;-144.99;37.16;52421.59;5027116;28;19988;-76
2022/12/11 10:36:53;;;;;;;;;;;;;;;-144.99;38.05;52431.78;5030602;28;19945;-77
2022/12/11 10:39:21;;;;;;;;;;;;;;;-144.99;37.52;52415.47;5012414;28;20564;-77
2022/12/11 10:41:50;;;;;;;;;;;;;;;-144.99;36.70;52399.19;5016244;28;19992;-77
2022/12/11 10:44:18;;;;;;;;;;;;;;;-144.99;36.79;52399.19;5027800;28;19947;-77
2022/12/11 10:46:45;;;;;;;;;;;;;;;-144.99;36.71;52378.78;5017207;28;20522;-79
2022/12/11 10:49:29;;;;;;;;;;;;;;;-144.99;36.97;52358.41;5016422;28;20011;-78
2022/12/11 10:51:56;;;;;;;;;;;;;;;-144.99;36.35;52386.94;5013894;28;20462;-76
2022/12/11 10:54:29;;;;;;;;;;;;;;;-144.99;37.14;52382.88;5010454;28;20293;-77
2022/12/11 10:56:58;;;;;;;;;;;;;;;-144.99;36.74;52399.19;5004095;28;20014;-78
2022/12/11 10:59:30;;;;;;;;;;;;;;;-144.99;36.35;52415.47;5011954;28;19990;-78
2022/12/11 11:01:57;;;;;;;;;;;;;;;-144.99;35.91;52395.09;5011297;28;19963;-78
2022/12/11 11:04:29;;;;;;;;;;;;;;;-144.99;35.91;52362.50;5012110;28;20004;-78
2022/12/11 11:07:03;;;;;;;;;;;;;;;-144.99;35.12;52342.09;5012023;28;19944;-79
2022/12/11 11:09:30;;;;;;;;;;;;;;;-144.99;34.21;52350.25;5012407;28;20516;-78
2022/12/11 11:11:58;;;;;;;;;;;;;;;-144.99;33.95;52338.03;5011375;28;20048;-78
2022/12/11 11:14:25;;;;;;;;;;;;;;;-144.99;33.82;52336.00;5011463;28;19940;-78
2022/12/11 11:16:54;;;;;;;;;;;;;;;-144.99;33.86;52370.63;5011590;28;20385;-78
2022/12/11 11:19:23;;;;;;;;;;;;;;;-144.99;34.37;52346.19;5012088;28;20004;-79
2022/12/11 11:21:52;;;;;;;;;;;;;;;-144.99;34.16;52362.50;4994077;28;20262;-78
2022/12/11 11:24:24;;;;;;;;;;;;;;;-144.99;33.48;52338.03;5010474;28;19948;-76
2022/12/11 11:26:50;;;;;;;;;;;;;;;-144.99;32.73;52344.16;5006176;28;19968;-78
2022/12/11 11:29:24;;;;;;;;;;;;;;;-144.99;33.02;52325.81;5010150;28;19925;-77
2022/12/11 11:31:51;;;;;;;;;;;;;;;-144.99;32.61;52368.59;5006443;28;20389;-78
2022/12/11 11:34:19;;;;;;;;;;;;;;;-144.99;32.65;52374.72;5005959;28;19956;-77
2022/12/11 11:36:55;;;;;;;;;;;;;;;-144.99;32.22;52350.25;5010992;28;19940;-78
2022/12/11 11:39:27;;;;;;;;;;;;;;;-144.99;32.73;52362.50;5010954;28;19964;-79
2022/12/11 11:41:58;;;;;;;;;;;;;;;-144.99;32.30;52309.50;5012672;28;20514;-79
2022/12/11 11:44:31;;;;;;;;;;;;;;;-144.99;32.08;52329.88;5005383;28;20045;-76
2022/12/11 11:46:59;;;;;;;;;;;;;;;-144.99;31.73;52311.53;5015732;28;19964;-79
2022/12/11 11:49:35;;;;;;;;;;;;;;;-144.99;31.23;52317.66;5015273;28;20020;-79
2022/12/11 11:52:03;;;;;;;;;;;;;;;-144.99;31.24;52305.41;5006849;28;19968;-76
2022/12/11 11:54:33;;;;;;;;;;;;;;;-144.99;31.69;52346.19;5012258;28;19970;-79
2022/12/11 11:57:03;;;;;;;;;;;;;;;-144.99;31.73;52358.41;5018035;28;19925;-79
2022/12/11 11:59:32;;;;;;;;;;;;;;;-144.99;31.69;52354.34;5032702;28;19955;-79
2022/12/11 12:01:58;;;;;;;;;;;;;;;-144.99;31.71;52362.50;5022806;28;19925;-78
2022/12/11 12:04:26;;;;;;;;;;;;;;;-144.99;31.40;52333.94;5009314;28;20577;-79
2022/12/11 12:07:00;;;;;;;;;;;;;;;-144.99;31.18;52354.34;5010135;28;19925;-79
2022/12/11 12:09:32;;;;;;;;;;;;;;;-144.99;31.22;52333.94;5013066;28;19998;-78
2022/12/11 12:12:05;;;;;;;;;;;;;;;-144.99;31.06;52380.84;5011197;28;19972;-79
2022/12/11 12:14:35;;;;;;;;;;;;;;;-144.99;30.93;52301.34;5011928;28;19929;-78
2022/12/11 12:17:06;;;;;;;;;;;;;;;-144.99;31.06;52358.41;5016869;28;20198;-79
2022/12/11 12:19:39;;;;;;;;;;;;;;;-144.99;31.16;52338.03;5016391;28;20043;-78
2022/12/11 12:22:14;;;;;;;;;;;;;;;-144.99;30.93;52346.19;5013843;28;19998;-78
2022/12/11 12:24:45;;;;;;;;;;;;;;;-144.99;30.56;52289.13;5017473;28;20474;-78
2022/12/11 12:27:17;;;;;;;;;;;;;;;-144.99;30.32;52350.25;5012010;28;19948;-75
2022/12/11 12:29:52;;;;;;;;;;;;;;;-144.99;30.68;52338.03;5015757;28;19976;-79
2022/12/11 12:32:24;;;;;;;;;;;;;;;-144.99;30.79;52336.00;4999850;28;20030;-78
2022/12/11 12:35:01;;;;;;;;;;;;;;;-144.99;30.20;52309.50;5018112;28;19977;-79
2022/12/11 12:37:35;;;;;;;;;;;;;;;-144.99;30.25;52313.56;5024410;28;19937;-77
2022/12/11 12:40:08;;;;;;;;;;;;;;;-144.99;29.83;52336.00;5007462;28;20009;-77